sensor_id;sensor_type;location;lat;lon;timestamp;P1;durP1;ratioP1;P2;durP2;ratioP2
23187;SDS011;11762;59.878;17.686;2023-05-10T00:45:02;7.00;;;3.40;;
23187;SDS011;11762;59.878;17.686;2023-05-10T00:47:29;7.93;;;3.30;;
23187;SDS011;11762;59.878;17.686;2023-05-10T00:49:57;6.93;;;3.63;;
23187;SDS011;11762;59.878;17.686;2023-05-10T00:52:25;9.53;;;3.33;;
23187;SDS011;11762;59.878;17.686;2023-05-10T00:54:53;7.40;;;3.57;;
23187;SDS011;11762;59.878;17.686;2023-05-10T00:57:20;5.50;;;3.20;;
23187;SDS011;11762;59.878;17.686;2023-05-10T00:59:48;7.47;;;3.20;;
23187;SDS011;11762;59.878;17.686;2023-05-10T01:02:16;6.53;;;3.43;;
23187;SDS011;11762;59.878;17.686;2023-05-10T01:04:43;11.73;;;3.60;;
23187;SDS011;11762;59.878;17.686;2023-05-10T01:07:10;5.87;;;3.30;;
23187;SDS011;11762;59.878;17.686;2023-05-10T01:09:37;8.27;;;3.10;;
23187;SDS011;11762;59.878;17.686;2023-05-10T01:12:05;10.70;;;3.20;;
23187;SDS011;11762;59.878;17.686;2023-05-10T01:14:33;6.17;;;3.10;;
23187;SDS011;11762;59.878;17.686;2023-05-10T01:17:01;6.27;;;3.33;;
23187;SDS011;11762;59.878;17.686;2023-05-10T01:19:31;7.93;;;3.23;;
23187;SDS011;11762;59.878;17.686;2023-05-10T01:22:02;5.87;;;3.43;;
23187;SDS011;11762;59.878;17.686;2023-05-10T01:27:47;5.87;;;3.50;;
23187;SDS011;11762;59.878;17.686;2023-05-10T01:30:44;6.87;;;3.53;;
23187;SDS011;11762;59.878;17.686;2023-05-10T01:33:30;7.30;;;3.60;;
23187;SDS011;11762;59.878;17.686;2023-05-10T01:36:03;10.10;;;3.80;;
23187;SDS011;11762;59.878;17.686;2023-05-10T01:38:37;7.17;;;3.73;;
23187;SDS011;11762;59.878;17.686;2023-05-10T01:41:12;8.53;;;4.17;;
23187;SDS011;11762;59.878;17.686;2023-05-10T01:43:45;6.13;;;3.83;;
23187;SDS011;11762;59.878;17.686;2023-05-10T01:46:23;7.17;;;3.93;;
23187;SDS011;11762;59.878;17.686;2023-05-10T01:48:55;9.47;;;3.80;;
23187;SDS011;11762;59.878;17.686;2023-05-10T01:51:25;7.67;;;4.17;;
23187;SDS011;11762;59.878;17.686;2023-05-10T01:54:02;14.07;;;4.10;;
23187;SDS011;11762;59.878;17.686;2023-05-10T01:56:31;7.87;;;4.67;;
23187;SDS011;11762;59.878;17.686;2023-05-10T01:59:02;9.67;;;4.30;;
23187;SDS011;11762;59.878;17.686;2023-05-10T02:01:34;7.17;;;4.00;;
23187;SDS011;11762;59.878;17.686;2023-05-10T02:04:04;10.90;;;4.90;;
23187;SDS011;11762;59.878;17.686;2023-05-10T02:06:33;10.53;;;4.00;;
23187;SDS011;11762;59.878;17.686;2023-05-10T02:09:01;8.90;;;4.33;;
23187;SDS011;11762;59.878;17.686;2023-05-10T02:11:29;6.73;;;3.83;;
23187;SDS011;11762;59.878;17.686;2023-05-10T02:13:57;7.27;;;4.60;;
23187;SDS011;11762;59.878;17.686;2023-05-10T02:16:26;10.43;;;4.67;;
23187;SDS011;11762;59.878;17.686;2023-05-10T02:18:57;7.73;;;4.57;;
23187;SDS011;11762;59.878;17.686;2023-05-10T02:21:29;9.97;;;4.97;;
23187;SDS011;11762;59.878;17.686;2023-05-10T02:23:57;7.87;;;5.00;;
23187;SDS011;11762;59.878;17.686;2023-05-10T02:26:27;11.37;;;5.27;;
23187;SDS011;11762;59.878;17.686;2023-05-10T02:28:55;11.37;;;5.40;;
23187;SDS011;11762;59.878;17.686;2023-05-10T02:31:24;6.83;;;4.53;;
23187;SDS011;11762;59.878;17.686;2023-05-10T02:33:52;7.73;;;4.53;;
23187;SDS011;11762;59.878;17.686;2023-05-10T02:36:20;8.87;;;4.77;;
23187;SDS011;11762;59.878;17.686;2023-05-10T02:38:50;10.67;;;5.07;;
23187;SDS011;11762;59.878;17.686;2023-05-10T02:41:19;8.93;;;4.63;;
23187;SDS011;11762;59.878;17.686;2023-05-10T02:43:49;13.13;;;5.23;;
23187;SDS011;11762;59.878;17.686;2023-05-10T02:46:17;8.73;;;4.70;;
23187;SDS011;11762;59.878;17.686;2023-05-10T02:48:44;11.17;;;4.77;;
23187;SDS011;11762;59.878;17.686;2023-05-10T02:51:12;8.10;;;4.70;;
23187;SDS011;11762;59.878;17.686;2023-05-10T02:53:43;9.57;;;4.80;;
23187;SDS011;11762;59.878;17.686;2023-05-10T02:56:15;8.67;;;4.13;;
23187;SDS011;11762;59.878;17.686;2023-05-10T02:58:48;8.20;;;4.47;;
23187;SDS011;11762;59.878;17.686;2023-05-10T03:01:15;9.10;;;4.93;;
23187;SDS011;11762;59.878;17.686;2023-05-10T03:03:42;6.63;;;4.10;;
23187;SDS011;11762;59.878;17.686;2023-05-10T03:06:09;9.17;;;4.43;;
23187;SDS011;11762;59.878;17.686;2023-05-10T03:08:36;9.20;;;4.50;;
23187;SDS011;11762;59.878;17.686;2023-05-10T03:11:22;7.90;;;4.60;;
23187;SDS011;11762;59.878;17.686;2023-05-10T03:14:01;8.77;;;4.23;;
23187;SDS011;11762;59.878;17.686;2023-05-10T03:16:39;10.80;;;4.33;;
23187;SDS011;11762;59.878;17.686;2023-05-10T03:19:12;9.63;;;4.57;;
23187;SDS011;11762;59.878;17.686;2023-05-10T03:21:44;8.70;;;4.60;;
23187;SDS011;11762;59.878;17.686;2023-05-10T03:24:18;7.90;;;4.60;;
23187;SDS011;11762;59.878;17.686;2023-05-10T03:26:50;13.93;;;4.77;;
23187;SDS011;11762;59.878;17.686;2023-05-10T03:29:22;10.37;;;4.07;;
23187;SDS011;11762;59.878;17.686;2023-05-10T03:31:52;12.43;;;4.90;;
23187;SDS011;11762;59.878;17.686;2023-05-10T03:34:23;9.33;;;4.40;;
23187;SDS011;11762;59.878;17.686;2023-05-10T03:36:50;11.33;;;3.73;;
23187;SDS011;11762;59.878;17.686;2023-05-10T03:39:17;10.90;;;4.67;;
23187;SDS011;11762;59.878;17.686;2023-05-10T03:41:44;10.60;;;4.90;;
23187;SDS011;11762;59.878;17.686;2023-05-10T03:44:12;8.20;;;4.27;;
23187;SDS011;11762;59.878;17.686;2023-05-10T03:46:39;10.77;;;4.33;;
23187;SDS011;11762;59.878;17.686;2023-05-10T03:49:07;7.87;;;4.73;;
23187;SDS011;11762;59.878;17.686;2023-05-10T03:51:33;12.23;;;5.10;;
23187;SDS011;11762;59.878;17.686;2023-05-10T03:54:00;11.80;;;4.17;;
23187;SDS011;11762;59.878;17.686;2023-05-10T03:56:28;13.37;;;4.80;;
23187;SDS011;11762;59.878;17.686;2023-05-10T03:58:55;7.47;;;4.00;;
23187;SDS011;11762;59.878;17.686;2023-05-10T04:01:23;9.63;;;4.27;;
23187;SDS011;11762;59.878;17.686;2023-05-10T04:03:50;14.93;;;4.70;;
23187;SDS011;11762;59.878;17.686;2023-05-10T04:06:17;8.93;;;4.53;;
23187;SDS011;11762;59.878;17.686;2023-05-10T04:08:44;10.27;;;4.63;;
23187;SDS011;11762;59.878;17.686;2023-05-10T04:11:11;8.33;;;4.60;;
23187;SDS011;11762;59.878;17.686;2023-05-10T04:13:39;8.37;;;4.43;;
23187;SDS011;11762;59.878;17.686;2023-05-10T04:16:06;9.63;;;4.23;;
23187;SDS011;11762;59.878;17.686;2023-05-10T04:18:34;10.73;;;4.80;;
23187;SDS011;11762;59.878;17.686;2023-05-10T04:21:01;11.73;;;4.10;;
23187;SDS011;11762;59.878;17.686;2023-05-10T04:23:28;9.30;;;3.80;;
23187;SDS011;11762;59.878;17.686;2023-05-10T04:25:59;14.30;;;4.63;;
23187;SDS011;11762;59.878;17.686;2023-05-10T04:28:26;22.30;;;5.00;;
23187;SDS011;11762;59.878;17.686;2023-05-10T04:31:00;19.63;;;5.10;;
23187;SDS011;11762;59.878;17.686;2023-05-10T04:33:27;24.10;;;5.53;;
23187;SDS011;11762;59.878;17.686;2023-05-10T04:35:55;12.07;;;4.30;;
23187;SDS011;11762;59.878;17.686;2023-05-10T04:38:23;8.67;;;4.70;;
23187;SDS011;11762;59.878;17.686;2023-05-10T04:40:50;12.50;;;4.57;;
23187;SDS011;11762;59.878;17.686;2023-05-10T04:43:17;9.87;;;4.30;;
23187;SDS011;11762;59.878;17.686;2023-05-10T04:45:45;7.23;;;4.03;;
23187;SDS011;11762;59.878;17.686;2023-05-10T04:48:12;8.60;;;3.80;;
23187;SDS011;11762;59.878;17.686;2023-05-10T04:50:39;11.47;;;4.33;;
23187;SDS011;11762;59.878;17.686;2023-05-10T04:53:07;10.33;;;3.97;;
23187;SDS011;11762;59.878;17.686;2023-05-10T04:55:35;22.20;;;4.40;;
23187;SDS011;11762;59.878;17.686;2023-05-10T04:58:02;7.33;;;3.77;;
23187;SDS011;11762;59.878;17.686;2023-05-10T05:00:29;17.10;;;4.33;;
23187;SDS011;11762;59.878;17.686;2023-05-10T05:02:57;12.20;;;3.90;;
23187;SDS011;11762;59.878;17.686;2023-05-10T05:05:24;12.87;;;3.97;;
23187;SDS011;11762;59.878;17.686;2023-05-10T05:07:51;13.63;;;4.90;;
23187;SDS011;11762;59.878;17.686;2023-05-10T05:10:19;5.80;;;3.40;;
23187;SDS011;11762;59.878;17.686;2023-05-10T05:12:46;12.07;;;3.80;;
23187;SDS011;11762;59.878;17.686;2023-05-10T05:15:13;7.57;;;3.67;;
23187;SDS011;11762;59.878;17.686;2023-05-10T05:17:41;9.27;;;4.07;;
23187;SDS011;11762;59.878;17.686;2023-05-10T05:20:09;9.37;;;3.50;;
23187;SDS011;11762;59.878;17.686;2023-05-10T05:22:36;9.30;;;3.92;;
23187;SDS011;11762;59.878;17.686;2023-05-10T05:25:04;11.32;;;4.00;;
23187;SDS011;11762;59.878;17.686;2023-05-10T05:27:33;17.55;;;4.05;;
23187;SDS011;11762;59.878;17.686;2023-05-10T05:30:00;12.85;;;3.50;;
23187;SDS011;11762;59.878;17.686;2023-05-10T05:32:27;7.18;;;3.47;;
23187;SDS011;11762;59.878;17.686;2023-05-10T05:34:54;7.75;;;5.00;;
23187;SDS011;11762;59.878;17.686;2023-05-10T05:37:21;15.30;;;3.58;;
23187;SDS011;11762;59.878;17.686;2023-05-10T05:39:49;6.28;;;3.90;;
23187;SDS011;11762;59.878;17.686;2023-05-10T05:42:16;11.45;;;3.13;;
23187;SDS011;11762;59.878;17.686;2023-05-10T05:44:45;12.40;;;3.50;;
23187;SDS011;11762;59.878;17.686;2023-05-10T05:47:12;8.05;;;3.30;;
23187;SDS011;11762;59.878;17.686;2023-05-10T05:49:39;10.93;;;3.85;;
23187;SDS011;11762;59.878;17.686;2023-05-10T05:52:06;10.38;;;3.35;;
23187;SDS011;11762;59.878;17.686;2023-05-10T05:54:33;10.38;;;3.40;;
23187;SDS011;11762;59.878;17.686;2023-05-10T05:57:00;11.95;;;3.60;;
23187;SDS011;11762;59.878;17.686;2023-05-10T05:59:27;15.10;;;3.30;;
23187;SDS011;11762;59.878;17.686;2023-05-10T06:01:56;16.67;;;4.63;;
23187;SDS011;11762;59.878;17.686;2023-05-10T06:04:23;12.18;;;3.60;;
23187;SDS011;11762;59.878;17.686;2023-05-10T06:06:50;7.85;;;3.28;;
23187;SDS011;11762;59.878;17.686;2023-05-10T06:09:17;5.53;;;2.83;;
23187;SDS011;11762;59.878;17.686;2023-05-10T06:11:44;12.20;;;3.70;;
23187;SDS011;11762;59.878;17.686;2023-05-10T06:14:12;11.70;;;5.15;;
23187;SDS011;11762;59.878;17.686;2023-05-10T06:16:39;13.93;;;4.68;;
23187;SDS011;11762;59.878;17.686;2023-05-10T06:19:07;6.13;;;3.00;;
23187;SDS011;11762;59.878;17.686;2023-05-10T06:21:34;9.23;;;3.00;;
23187;SDS011;11762;59.878;17.686;2023-05-10T06:24:01;11.95;;;3.83;;
23187;SDS011;11762;59.878;17.686;2023-05-10T06:26:28;10.80;;;2.90;;
23187;SDS011;11762;59.878;17.686;2023-05-10T06:28:55;6.93;;;3.08;;
23187;SDS011;11762;59.878;17.686;2023-05-10T06:31:22;7.90;;;3.20;;
23187;SDS011;11762;59.878;17.686;2023-05-10T06:33:49;10.63;;;3.00;;
23187;SDS011;11762;59.878;17.686;2023-05-10T06:36:19;10.60;;;3.20;;
23187;SDS011;11762;59.878;17.686;2023-05-10T06:38:47;9.75;;;3.15;;
23187;SDS011;11762;59.878;17.686;2023-05-10T06:41:14;6.20;;;2.95;;
23187;SDS011;11762;59.878;17.686;2023-05-10T06:43:41;8.70;;;3.25;;
23187;SDS011;11762;59.878;17.686;2023-05-10T06:46:08;9.73;;;3.38;;
23187;SDS011;11762;59.878;17.686;2023-05-10T06:48:35;13.02;;;3.53;;
23187;SDS011;11762;59.878;17.686;2023-05-10T06:51:02;6.45;;;2.97;;
23187;SDS011;11762;59.878;17.686;2023-05-10T06:53:31;6.00;;;2.97;;
23187;SDS011;11762;59.878;17.686;2023-05-10T06:55:57;9.98;;;3.05;;
23187;SDS011;11762;59.878;17.686;2023-05-10T06:58:25;10.90;;;3.05;;
23187;SDS011;11762;59.878;17.686;2023-05-10T07:00:52;7.38;;;2.60;;
23187;SDS011;11762;59.878;17.686;2023-05-10T07:03:19;7.72;;;2.97;;
23187;SDS011;11762;59.878;17.686;2023-05-10T07:05:46;7.10;;;2.80;;
23187;SDS011;11762;59.878;17.686;2023-05-10T07:08:12;5.47;;;2.63;;
23187;SDS011;11762;59.878;17.686;2023-05-10T07:10:41;9.80;;;2.78;;
23187;SDS011;11762;59.878;17.686;2023-05-10T07:13:08;10.32;;;3.15;;
23187;SDS011;11762;59.878;17.686;2023-05-10T07:15:35;7.07;;;2.63;;
23187;SDS011;11762;59.878;17.686;2023-05-10T07:18:02;10.55;;;5.43;;
23187;SDS011;11762;59.878;17.686;2023-05-10T07:20:31;5.95;;;3.28;;
23187;SDS011;11762;59.878;17.686;2023-05-10T07:22:58;7.32;;;2.33;;
23187;SDS011;11762;59.878;17.686;2023-05-10T07:25:25;8.45;;;2.83;;
23187;SDS011;11762;59.878;17.686;2023-05-10T07:27:54;7.82;;;2.97;;
23187;SDS011;11762;59.878;17.686;2023-05-10T07:30:21;5.75;;;2.67;;
23187;SDS011;11762;59.878;17.686;2023-05-10T07:32:48;6.70;;;2.80;;
23187;SDS011;11762;59.878;17.686;2023-05-10T07:35:15;7.80;;;2.17;;
23187;SDS011;11762;59.878;17.686;2023-05-10T07:37:42;9.25;;;3.47;;
23187;SDS011;11762;59.878;17.686;2023-05-10T07:40:09;5.85;;;2.40;;
23187;SDS011;11762;59.878;17.686;2023-05-10T07:42:37;6.03;;;2.90;;
23187;SDS011;11762;59.878;17.686;2023-05-10T07:45:06;6.38;;;2.95;;
23187;SDS011;11762;59.878;17.686;2023-05-10T07:47:33;5.32;;;3.00;;
23187;SDS011;11762;59.878;17.686;2023-05-10T07:50:00;7.70;;;2.78;;
23187;SDS011;11762;59.878;17.686;2023-05-10T07:52:27;6.63;;;3.00;;
23187;SDS011;11762;59.878;17.686;2023-05-10T07:54:54;9.85;;;2.75;;
23187;SDS011;11762;59.878;17.686;2023-05-10T07:57:22;9.30;;;2.50;;
23187;SDS011;11762;59.878;17.686;2023-05-10T07:59:49;7.78;;;2.60;;
23187;SDS011;11762;59.878;17.686;2023-05-10T08:02:17;11.93;;;2.67;;
23187;SDS011;11762;59.878;17.686;2023-05-10T08:04:44;8.38;;;2.80;;
23187;SDS011;11762;59.878;17.686;2023-05-10T08:07:11;8.77;;;3.20;;
23187;SDS011;11762;59.878;17.686;2023-05-10T08:09:38;4.65;;;2.90;;
23187;SDS011;11762;59.878;17.686;2023-05-10T08:12:05;8.13;;;2.65;;
23187;SDS011;11762;59.878;17.686;2023-05-10T08:14:33;13.18;;;3.33;;
23187;SDS011;11762;59.878;17.686;2023-05-10T08:17:01;4.53;;;2.45;;
23187;SDS011;11762;59.878;17.686;2023-05-10T08:19:30;5.22;;;2.72;;
23187;SDS011;11762;59.878;17.686;2023-05-10T08:21:57;6.72;;;2.70;;
23187;SDS011;11762;59.878;17.686;2023-05-10T08:24:24;6.07;;;2.88;;
23187;SDS011;11762;59.878;17.686;2023-05-10T08:26:51;6.88;;;3.00;;
23187;SDS011;11762;59.878;17.686;2023-05-10T08:29:18;7.10;;;2.80;;
23187;SDS011;11762;59.878;17.686;2023-05-10T08:31:45;9.88;;;2.67;;
23187;SDS011;11762;59.878;17.686;2023-05-10T08:34:12;7.78;;;2.47;;
23187;SDS011;11762;59.878;17.686;2023-05-10T08:36:40;13.63;;;3.10;;
23187;SDS011;11762;59.878;17.686;2023-05-10T08:39:07;4.68;;;2.33;;
23187;SDS011;11762;59.878;17.686;2023-05-10T08:41:34;6.57;;;2.85;;
23187;SDS011;11762;59.878;17.686;2023-05-10T08:44:05;6.55;;;2.75;;
23187;SDS011;11762;59.878;17.686;2023-05-10T08:46:34;4.43;;;2.75;;
23187;SDS011;11762;59.878;17.686;2023-05-10T08:49:05;11.38;;;2.70;;
23187;SDS011;11762;59.878;17.686;2023-05-10T08:51:35;6.18;;;2.63;;
23187;SDS011;11762;59.878;17.686;2023-05-10T08:54:07;4.18;;;2.78;;
23187;SDS011;11762;59.878;17.686;2023-05-10T08:56:35;5.93;;;3.13;;
23187;SDS011;11762;59.878;17.686;2023-05-10T08:59:03;10.50;;;2.80;;
23187;SDS011;11762;59.878;17.686;2023-05-10T09:01:30;7.70;;;2.97;;
23187;SDS011;11762;59.878;17.686;2023-05-10T09:03:59;11.45;;;3.20;;
23187;SDS011;11762;59.878;17.686;2023-05-10T09:06:26;5.10;;;2.63;;
23187;SDS011;11762;59.878;17.686;2023-05-10T09:08:53;6.60;;;3.22;;
23187;SDS011;11762;59.878;17.686;2023-05-10T09:11:22;6.70;;;2.80;;
23187;SDS011;11762;59.878;17.686;2023-05-10T09:13:50;8.73;;;2.65;;
23187;SDS011;11762;59.878;17.686;2023-05-10T09:16:18;5.95;;;2.38;;
23187;SDS011;11762;59.878;17.686;2023-05-10T09:18:45;6.70;;;2.85;;
23187;SDS011;11762;59.878;17.686;2023-05-10T09:21:12;4.53;;;2.58;;
23187;SDS011;11762;59.878;17.686;2023-05-10T09:23:42;19.75;;;3.17;;
23187;SDS011;11762;59.878;17.686;2023-05-10T09:26:09;15.77;;;2.90;;
23187;SDS011;11762;59.878;17.686;2023-05-10T09:28:50;8.35;;;2.35;;
23187;SDS011;11762;59.878;17.686;2023-05-10T09:31:18;20.90;;;3.92;;
23187;SDS011;11762;59.878;17.686;2023-05-10T09:33:46;5.50;;;2.30;;
23187;SDS011;11762;59.878;17.686;2023-05-10T09:36:14;5.07;;;2.50;;
23187;SDS011;11762;59.878;17.686;2023-05-10T09:38:45;4.97;;;2.35;;
23187;SDS011;11762;59.878;17.686;2023-05-10T09:41:16;5.88;;;2.45;;
23187;SDS011;11762;59.878;17.686;2023-05-10T09:43:44;4.75;;;2.38;;
23187;SDS011;11762;59.878;17.686;2023-05-10T09:46:12;9.73;;;2.95;;
23187;SDS011;11762;59.878;17.686;2023-05-10T09:48:43;10.02;;;2.78;;
23187;SDS011;11762;59.878;17.686;2023-05-10T09:51:18;9.85;;;2.67;;
23187;SDS011;11762;59.878;17.686;2023-05-10T09:53:45;9.70;;;2.70;;
23187;SDS011;11762;59.878;17.686;2023-05-10T09:56:12;12.68;;;2.72;;
23187;SDS011;11762;59.878;17.686;2023-05-10T09:58:40;11.10;;;3.20;;
23187;SDS011;11762;59.878;17.686;2023-05-10T10:01:10;16.65;;;3.15;;
23187;SDS011;11762;59.878;17.686;2023-05-10T10:03:41;11.60;;;2.47;;
23187;SDS011;11762;59.878;17.686;2023-05-10T10:06:08;9.80;;;2.85;;
23187;SDS011;11762;59.878;17.686;2023-05-10T10:08:35;8.50;;;2.17;;
23187;SDS011;11762;59.878;17.686;2023-05-10T10:11:03;7.07;;;2.50;;
23187;SDS011;11762;59.878;17.686;2023-05-10T10:13:30;6.97;;;3.38;;
23187;SDS011;11762;59.878;17.686;2023-05-10T10:15:58;7.70;;;2.88;;
23187;SDS011;11762;59.878;17.686;2023-05-10T10:18:26;6.47;;;3.75;;
23187;SDS011;11762;59.878;17.686;2023-05-10T10:20:54;10.77;;;3.17;;
23187;SDS011;11762;59.878;17.686;2023-05-10T10:23:22;9.50;;;2.63;;
23187;SDS011;11762;59.878;17.686;2023-05-10T10:25:49;6.32;;;2.90;;
23187;SDS011;11762;59.878;17.686;2023-05-10T10:28:20;6.68;;;2.67;;
23187;SDS011;11762;59.878;17.686;2023-05-10T10:30:52;7.68;;;2.75;;
23187;SDS011;11762;59.878;17.686;2023-05-10T10:33:33;4.70;;;2.80;;
23187;SDS011;11762;59.878;17.686;2023-05-10T10:36:06;7.32;;;3.10;;
23187;SDS011;11762;59.878;17.686;2023-05-10T10:38:37;9.57;;;2.55;;
23187;SDS011;11762;59.878;17.686;2023-05-10T10:41:27;11.25;;;2.60;;
23187;SDS011;11762;59.878;17.686;2023-05-10T10:46:58;11.90;;;2.53;;
23187;SDS011;11762;59.878;17.686;2023-05-10T10:49:27;9.88;;;3.15;;
23187;SDS011;11762;59.878;17.686;2023-05-10T10:52:13;9.80;;;2.85;;
23187;SDS011;11762;59.878;17.686;2023-05-10T10:54:56;7.65;;;2.70;;
23187;SDS011;11762;59.878;17.686;2023-05-10T10:57:26;10.27;;;2.97;;
23187;SDS011;11762;59.878;17.686;2023-05-10T11:03:03;6.03;;;2.60;;
23187;SDS011;11762;59.878;17.686;2023-05-10T11:05:36;5.95;;;2.70;;
23187;SDS011;11762;59.878;17.686;2023-05-10T11:08:09;7.82;;;2.72;;
23187;SDS011;11762;59.878;17.686;2023-05-10T11:10:55;7.93;;;2.72;;
23187;SDS011;11762;59.878;17.686;2023-05-10T11:13:33;5.30;;;2.63;;
23187;SDS011;11762;59.878;17.686;2023-05-10T11:16:14;7.28;;;2.80;;
23187;SDS011;11762;59.878;17.686;2023-05-10T11:18:52;8.18;;;2.97;;
23187;SDS011;11762;59.878;17.686;2023-05-10T11:21:22;7.78;;;2.45;;
23187;SDS011;11762;59.878;17.686;2023-05-10T11:23:50;9.52;;;2.42;;
23187;SDS011;11762;59.878;17.686;2023-05-10T11:26:21;7.13;;;2.65;;
23187;SDS011;11762;59.878;17.686;2023-05-10T11:28:50;7.07;;;2.88;;
23187;SDS011;11762;59.878;17.686;2023-05-10T11:31:19;6.20;;;2.42;;
23187;SDS011;11762;59.878;17.686;2023-05-10T11:33:48;11.70;;;2.75;;
23187;SDS011;11762;59.878;17.686;2023-05-10T11:36:16;5.00;;;2.50;;
23187;SDS011;11762;59.878;17.686;2023-05-10T11:38:46;14.05;;;3.05;;
23187;SDS011;11762;59.878;17.686;2023-05-10T11:41:15;15.32;;;2.70;;
23187;SDS011;11762;59.878;17.686;2023-05-10T11:43:46;14.63;;;3.22;;
23187;SDS011;11762;59.878;17.686;2023-05-10T11:46:15;17.00;;;2.88;;
23187;SDS011;11762;59.878;17.686;2023-05-10T11:48:45;9.13;;;2.60;;
23187;SDS011;11762;59.878;17.686;2023-05-10T11:51:15;8.07;;;2.50;;
23187;SDS011;11762;59.878;17.686;2023-05-10T11:53:48;13.95;;;2.35;;
23187;SDS011;11762;59.878;17.686;2023-05-10T11:56:16;8.32;;;3.10;;
23187;SDS011;11762;59.878;17.686;2023-05-10T11:58:43;7.35;;;2.58;;
23187;SDS011;11762;59.878;17.686;2023-05-10T12:01:12;10.05;;;2.90;;
23187;SDS011;11762;59.878;17.686;2023-05-10T12:03:39;4.88;;;2.50;;
23187;SDS011;11762;59.878;17.686;2023-05-10T12:06:07;16.17;;;2.85;;
23187;SDS011;11762;59.878;17.686;2023-05-10T12:08:34;4.78;;;2.58;;
23187;SDS011;11762;59.878;17.686;2023-05-10T12:11:06;6.93;;;2.63;;
23187;SDS011;11762;59.878;17.686;2023-05-10T12:13:37;5.72;;;2.25;;
23187;SDS011;11762;59.878;17.686;2023-05-10T12:16:12;9.32;;;2.70;;
23187;SDS011;11762;59.878;17.686;2023-05-10T12:18:40;9.43;;;2.30;;
23187;SDS011;11762;59.878;17.686;2023-05-10T12:21:09;5.07;;;2.60;;
23187;SDS011;11762;59.878;17.686;2023-05-10T12:23:36;9.80;;;2.40;;
23187;SDS011;11762;59.878;17.686;2023-05-10T12:26:03;10.93;;;2.60;;
23187;SDS011;11762;59.878;17.686;2023-05-10T12:28:32;7.55;;;2.78;;
23187;SDS011;11762;59.878;17.686;2023-05-10T12:31:00;10.55;;;2.90;;
23187;SDS011;11762;59.878;17.686;2023-05-10T12:33:35;12.40;;;2.80;;
23187;SDS011;11762;59.878;17.686;2023-05-10T12:36:04;12.23;;;3.05;;
23187;SDS011;11762;59.878;17.686;2023-05-10T12:38:32;11.05;;;2.75;;
23187;SDS011;11762;59.878;17.686;2023-05-10T12:41:01;12.82;;;4.10;;
23187;SDS011;11762;59.878;17.686;2023-05-10T12:43:30;8.60;;;2.88;;
23187;SDS011;11762;59.878;17.686;2023-05-10T12:45:58;7.40;;;2.75;;
23187;SDS011;11762;59.878;17.686;2023-05-10T12:48:30;9.30;;;2.35;;
23187;SDS011;11762;59.878;17.686;2023-05-10T12:50:58;5.10;;;2.50;;
23187;SDS011;11762;59.878;17.686;2023-05-10T12:53:26;4.95;;;1.98;;
23187;SDS011;11762;59.878;17.686;2023-05-10T12:55:53;15.63;;;2.85;;
23187;SDS011;11762;59.878;17.686;2023-05-10T12:58:20;8.90;;;2.05;;
23187;SDS011;11762;59.878;17.686;2023-05-10T13:00:48;7.70;;;2.22;;
23187;SDS011;11762;59.878;17.686;2023-05-10T13:03:16;6.30;;;2.53;;
23187;SDS011;11762;59.878;17.686;2023-05-10T13:05:43;9.20;;;2.70;;
23187;SDS011;11762;59.878;17.686;2023-05-10T13:08:10;10.07;;;2.28;;
23187;SDS011;11762;59.878;17.686;2023-05-10T13:10:37;7.68;;;2.80;;
23187;SDS011;11762;59.878;17.686;2023-05-10T13:13:05;6.07;;;2.30;;
23187;SDS011;11762;59.878;17.686;2023-05-10T13:15:32;11.30;;;2.70;;
23187;SDS011;11762;59.878;17.686;2023-05-10T13:18:00;9.10;;;2.10;;
23187;SDS011;11762;59.878;17.686;2023-05-10T13:20:28;14.68;;;3.00;;
23187;SDS011;11762;59.878;17.686;2023-05-10T13:22:54;7.78;;;2.72;;
23187;SDS011;11762;59.878;17.686;2023-05-10T13:25:21;7.72;;;2.92;;
23187;SDS011;11762;59.878;17.686;2023-05-10T13:27:49;8.60;;;2.15;;
23187;SDS011;11762;59.878;17.686;2023-05-10T13:30:16;7.80;;;2.22;;
23187;SDS011;11762;59.878;17.686;2023-05-10T13:32:43;7.65;;;2.28;;
23187;SDS011;11762;59.878;17.686;2023-05-10T13:35:12;7.45;;;2.55;;
23187;SDS011;11762;59.878;17.686;2023-05-10T13:37:39;12.32;;;2.75;;
23187;SDS011;11762;59.878;17.686;2023-05-10T13:40:06;12.60;;;3.35;;
23187;SDS011;11762;59.878;17.686;2023-05-10T13:42:34;8.60;;;2.42;;
23187;SDS011;11762;59.878;17.686;2023-05-10T13:45:01;5.07;;;2.45;;
23187;SDS011;11762;59.878;17.686;2023-05-10T13:47:28;6.15;;;2.53;;
23187;SDS011;11762;59.878;17.686;2023-05-10T13:49:56;9.02;;;3.22;;
23187;SDS011;11762;59.878;17.686;2023-05-10T13:52:24;8.45;;;2.20;;
23187;SDS011;11762;59.878;17.686;2023-05-10T13:54:52;11.35;;;3.50;;
23187;SDS011;11762;59.878;17.686;2023-05-10T13:57:20;14.93;;;2.63;;
23187;SDS011;11762;59.878;17.686;2023-05-10T13:59:48;11.00;;;2.75;;
23187;SDS011;11762;59.878;17.686;2023-05-10T14:02:15;8.20;;;2.85;;
23187;SDS011;11762;59.878;17.686;2023-05-10T14:04:42;18.58;;;3.22;;
23187;SDS011;11762;59.878;17.686;2023-05-10T14:07:09;6.50;;;2.28;;
23187;SDS011;11762;59.878;17.686;2023-05-10T14:09:37;7.22;;;2.35;;
23187;SDS011;11762;59.878;17.686;2023-05-10T14:12:04;7.80;;;2.40;;
23187;SDS011;11762;59.878;17.686;2023-05-10T14:14:31;10.38;;;2.28;;
23187;SDS011;11762;59.878;17.686;2023-05-10T14:16:58;6.30;;;2.42;;
23187;SDS011;11762;59.878;17.686;2023-05-10T14:19:25;9.38;;;2.65;;
23187;SDS011;11762;59.878;17.686;2023-05-10T14:21:55;5.95;;;2.10;;
23187;SDS011;11762;59.878;17.686;2023-05-10T14:24:22;7.75;;;2.10;;
23187;SDS011;11762;59.878;17.686;2023-05-10T14:26:51;3.65;;;2.22;;
23187;SDS011;11762;59.878;17.686;2023-05-10T14:29:19;13.57;;;2.60;;
23187;SDS011;11762;59.878;17.686;2023-05-10T14:31:46;7.28;;;2.10;;
23187;SDS011;11762;59.878;17.686;2023-05-10T14:34:13;7.97;;;2.35;;
23187;SDS011;11762;59.878;17.686;2023-05-10T14:36:40;11.52;;;2.20;;
23187;SDS011;11762;59.878;17.686;2023-05-10T14:39:07;6.53;;;2.40;;
23187;SDS011;11762;59.878;17.686;2023-05-10T14:41:35;9.75;;;2.50;;
23187;SDS011;11762;59.878;17.686;2023-05-10T14:44:04;4.65;;;2.30;;
23187;SDS011;11762;59.878;17.686;2023-05-10T14:46:31;5.60;;;2.25;;
23187;SDS011;11762;59.878;17.686;2023-05-10T14:48:59;10.98;;;2.15;;
23187;SDS011;11762;59.878;17.686;2023-05-10T14:51:26;4.93;;;2.20;;
23187;SDS011;11762;59.878;17.686;2023-05-10T14:53:53;6.30;;;2.00;;
23187;SDS011;11762;59.878;17.686;2023-05-10T14:56:20;6.07;;;1.80;;
23187;SDS011;11762;59.878;17.686;2023-05-10T14:58:49;7.80;;;2.17;;
23187;SDS011;11762;59.878;17.686;2023-05-10T15:01:18;3.35;;;2.13;;
23187;SDS011;11762;59.878;17.686;2023-05-10T15:03:45;9.65;;;2.35;;
23187;SDS011;11762;59.878;17.686;2023-05-10T15:06:13;12.95;;;2.47;;
23187;SDS011;11762;59.878;17.686;2023-05-10T15:08:40;8.85;;;2.10;;
23187;SDS011;11762;59.878;17.686;2023-05-10T15:11:08;8.32;;;2.35;;
23187;SDS011;11762;59.878;17.686;2023-05-10T15:13:35;7.72;;;1.95;;
23187;SDS011;11762;59.878;17.686;2023-05-10T15:16:02;5.18;;;2.08;;
23187;SDS011;11762;59.878;17.686;2023-05-10T15:18:30;5.93;;;2.30;;
23187;SDS011;11762;59.878;17.686;2023-05-10T15:20:57;6.40;;;2.55;;
23187;SDS011;11762;59.878;17.686;2023-05-10T15:23:24;8.93;;;2.65;;
23187;SDS011;11762;59.878;17.686;2023-05-10T15:25:51;8.88;;;3.05;;
23187;SDS011;11762;59.878;17.686;2023-05-10T15:28:20;12.85;;;2.05;;
23187;SDS011;11762;59.878;17.686;2023-05-10T15:30:47;10.55;;;2.35;;
23187;SDS011;11762;59.878;17.686;2023-05-10T15:33:14;5.60;;;2.47;;